Talowah, Mississippi
Current Conditions -  °F | °C
As of 3:53 AM on Sunday 23 Nov 2014 (Local Time) from KHBG Reporting Station
Haze Haze  
Wind Chill: 60°   Ceiling: 300
Heat Index: 60°   Visibility: 1.7mi
Dew Point: 59°   Wind: 5mph
Humidity: 96%   Direction: 90°E
Pressure: 29.81"   Gusts: NA
Location:  31.0601°N, 89.4815°W
Report Text: KHBG 230953Z AUTO 09004KT 1 3/4SM BR OVC003 16/15 A2981 RMK AO2 SLP091 T01560150
Loading
Personal Weather Stations






























Interactive Weather Map New forecast layout! Learn more

10-Day Weather Forecast

Advertisements
Track Severe Weather on mobile